South Lee, MA (01260)

1:00 PM EST on November 21, 2014 (GMT -0500)
GB-Fairview | Change Station
CLOSE
Current Station
Personal Weather Station
Location: Great Barrington, MA
Elevation: 709 ft
Nearby Weather Stations

Elev 709 ft 42.21 °N, 73.34 °W | Updated 9 seconds ago

Overcast
Overcast
27.6 °F
Feels Like 21 °F
N
6.0
Wind Variable Wind from West
Gusts 6.0 mph

Today
High -- | Low -- °F
--% Chance of Precip.
Yesterday
High -- | Low -- °F
Precip. -- in
6:50 AM 4:26 PM
Waning Crescent, 1% visible
Pressure 30.22 in
Visibility 10.0 miles
Clouds Few 3000 ft
Overcast 3800 ft
Windchill 21 °F
Dew Point 17 °F
Humidity 65%
Rainfall 0.00 in
Snow Depth Not available.
UV 0.8 out of 12
Pollen .10 out of 12
Air Quality Not available.
Flu Activity Not available.
METAR KPSF 211754Z AUTO 30014G28KT 10SM FEW030 OVC038 M04/M12 A3016 RMK AO2 PK WND 29031/1718 SNE11 SLP232 P0000 60000 T10391117 11033 21072 53017

More Conditions Fewer Conditions

Pressure 30.22 in
Visibility 10.0 miles
Clouds Few 3000 ft
Overcast 3800 ft
Windchill 21 °F
Dew Point 17 °F
Humidity 65%
Rainfall 0.00 in
Snow Depth Not available.
UV 0.8 out of 12
Pollen .10 out of 12
Air Quality Not available.
Flu Activity Not available.
METAR KPSF 211754Z AUTO 30014G28KT 10SM FEW030 OVC038 M04/M12 A3016 RMK AO2 PK WND 29031/1718 SNE11 SLP232 P0000 60000 T10391117 11033 21072 53017

More Conditions Fewer Conditions

10-Day Weather Forecast

Almanac

Astronomy

Nov. 21, 2014 Rise Set
Actual Time
Civil Twilight
Nautical Twilight
Astronomical Twilight
Moon
Length of Visible Light
Length of Day
Tomorrow will be .
, % of the Moon is Illuminated

Today's Extremes

State Highs State Lows

Community

WunderPhotos

Upload Photos

1,772,690 photos uploaded!

WunderBlogs® & News

Nearby

Air Quality

  Air Quality AQ Index Pollutant
Not available.

Snow Depth

Station Depth Elevation

Earthquake Activity

City Distance Mag. Time & Date
Minimum magnitude displayed is 2.5.

Coastal Water Temperatures

Place Temperature

Nearby Weather Stations